Time,TemperatureF,DewpointF,PressureIn,WindDirection,WindDirectionDegrees,WindSpeedMPH,WindSpeedGustMPH,Humidity,HourlyPrecipIn,Conditions,Clouds,dailyrainin,SoftwareType,DateUTC
2013-03-06 00:02:00,34.0,31.0,29.73,ESE,113,2.0,5.0,89,0.00,,,0.01,,2013-03-06 05:02:00,
2013-03-06 00:12:00,34.0,31.0,29.73,ESE,113,2.0,5.0,89,0.00,,,0.01,,2013-03-06 05:12:00,
2013-03-06 00:22:00,34.0,31.0,29.71,East,79,0.0,0.0,89,0.00,,,0.01,,2013-03-06 05:22:00,
2013-03-06 00:32:00,33.0,30.0,29.70,East,86,0.0,0.0,89,0.00,,,0.01,,2013-03-06 05:32:00,
2013-03-06 00:42:00,33.0,30.0,29.70,East,86,0.0,0.0,89,0.00,,,0.01,,2013-03-06 05:42:00,
2013-03-06 00:52:00,33.0,30.0,29.69,SSW,193,0.0,0.0,90,0.00,,,0.01,,2013-03-06 05:52:00,
2013-03-06 01:02:00,33.0,30.0,29.68,East,94,0.0,0.0,90,0.00,,,0.01,,2013-03-06 06:02:00,
2013-03-06 01:11:00,33.0,30.0,29.68,East,94,0.0,0.0,90,0.00,,,0.01,,2013-03-06 06:11:00,
2013-03-06 01:22:00,33.0,30.0,29.68,ENE,72,0.0,0.0,90,0.00,,,0.01,,2013-03-06 06:22:00,
2013-03-06 01:32:00,33.0,30.0,29.68,NE,48,0.0,0.0,90,0.00,,,0.01,,2013-03-06 06:32:00,
2013-03-06 01:42:00,33.0,30.0,29.68,NE,48,0.0,0.0,90,0.00,,,0.01,,2013-03-06 06:42:00,
2013-03-06 01:52:00,33.0,30.0,29.68,SSW,194,0.0,0.0,90,0.00,,,0.01,,2013-03-06 06:52:00,
2013-03-06 02:01:00,33.0,30.0,29.68,SSW,194,0.0,0.0,90,0.00,,,0.01,,2013-03-06 07:01:00,
2013-03-06 02:11:00,33.0,30.0,29.68,SSW,194,0.0,0.0,90,0.00,,,0.01,,2013-03-06 07:11:00,
2013-03-06 02:22:00,33.0,30.0,29.68,SSW,194,0.0,0.0,90,0.00,,,0.01,,2013-03-06 07:22:00,
2013-03-06 02:32:00,33.0,30.0,29.68,SSW,194,0.0,0.0,90,0.00,,,0.01,,2013-03-06 07:32:00,
2013-03-06 02:42:00,33.0,30.0,29.68,SSW,194,0.0,0.0,90,0.00,,,0.01,,2013-03-06 07:42:00,
2013-03-06 02:52:00,33.0,30.0,29.67,SSW,194,0.0,0.0,90,0.00,,,0.01,,2013-03-06 07:52:00,
2013-03-06 03:01:00,33.0,30.0,29.66,SSW,194,0.0,0.0,90,0.00,,,0.01,,2013-03-06 08:01:00,
2013-03-06 03:11:00,33.0,30.0,29.66,SSW,194,0.0,0.0,90,0.00,,,0.01,,2013-03-06 08:11:00,
2013-03-06 03:21:00,33.0,30.0,29.66,SSW,195,0.0,0.0,90,0.00,,,0.01,,2013-03-06 08:21:00,
2013-03-06 03:32:00,33.0,30.0,29.66,SSW,194,0.0,0.0,90,0.00,,,0.01,,2013-03-06 08:32:00,
2013-03-06 03:42:00,33.0,30.0,29.66,SSW,194,0.0,0.0,90,0.00,,,0.01,,2013-03-06 08:42:00,
2013-03-06 03:52:00,33.0,30.0,29.66,SSW,194,0.0,0.0,90,0.00,,,0.01,,2013-03-06 08:52:00,
2013-03-06 04:00:00,32.0,29.0,29.66,SSW,194,0.0,0.0,90,0.00,,,0.01,,2013-03-06 09:00:00,
2013-03-06 04:01:00,33.0,30.0,29.65,SSW,195,0.0,0.0,90,0.00,,,0.01,,2013-03-06 09:01:00,
2013-03-06 04:12:00,33.0,30.0,29.65,SSW,195,0.0,0.0,90,0.00,,,0.01,,2013-03-06 09:12:00,
2013-03-06 04:22:00,32.0,29.0,29.66,SSW,194,0.0,0.0,90,0.00,,,0.01,,2013-03-06 09:22:00,
2013-03-06 04:32:00,32.0,29.0,29.66,SSW,194,0.0,0.0,90,0.00,,,0.01,,2013-03-06 09:32:00,
2013-03-06 04:42:00,32.0,29.0,29.66,SSW,194,0.0,0.0,90,0.00,,,0.01,,2013-03-06 09:42:00,
2013-03-06 04:52:00,32.0,29.0,29.66,SSW,194,0.0,0.0,90,0.00,,,0.01,,2013-03-06 09:52:00,
2013-03-06 15:23:00,38.0,33.0,29.89,East,100,0.0,0.0,83,0.01,,,0.01,,2013-03-06 20:23:00,
2013-03-06 15:33:00,38.0,33.0,29.90,North,0,0.0,0.0,81,0.01,,,0.01,,2013-03-06 20:33:00,
2013-03-06 15:43:00,38.0,33.0,29.90,North,0,0.0,0.0,81,0.01,,,0.01,,2013-03-06 20:43:00,
2013-03-06 15:53:00,38.0,32.0,29.92,NNW,328,0.0,0.0,79,0.00,,,0.01,,2013-03-06 20:53:00,
2013-03-06 16:02:00,38.0,32.0,29.93,NNW,344,3.0,10.0,79,0.01,,,0.02,,2013-03-06 21:02:00,
2013-03-06 16:12:00,38.0,32.0,29.93,NNW,344,3.0,10.0,79,0.01,,,0.02,,2013-03-06 21:12:00,
2013-03-06 16:22:00,38.0,32.0,29.95,WNW,285,3.0,13.0,79,0.04,,,0.05,,2013-03-06 21:22:00,
2013-03-06 16:32:00,37.0,31.0,29.96,NW,325,5.0,13.0,79,0.06,,,0.07,,2013-03-06 21:32:00,
2013-03-06 16:42:00,37.0,31.0,29.96,NW,325,5.0,13.0,79,0.06,,,0.07,,2013-03-06 21:42:00,
2013-03-06 16:52:00,38.0,32.0,29.97,NW,319,2.0,10.0,78,0.08,,,0.09,,2013-03-06 21:52:00,
2013-03-06 17:02:00,38.0,31.0,29.98,NW,313,4.0,14.0,77,0.09,,,0.11,,2013-03-06 22:02:00,
2013-03-06 17:11:00,38.0,31.0,29.98,NW,313,4.0,14.0,77,0.09,,,0.11,,2013-03-06 22:11:00,
2013-03-06 17:22:00,38.0,31.0,29.99,NNW,348,4.0,9.0,75,0.08,,,0.13,,2013-03-06 22:22:00,
2013-03-06 17:32:00,38.0,30.0,30.00,WNW,303,4.0,9.0,73,0.07,,,0.14,,2013-03-06 22:32:00,
2013-03-06 17:42:00,38.0,30.0,30.00,WNW,303,4.0,9.0,73,0.07,,,0.14,,2013-03-06 22:42:00,
2013-03-06 17:52:00,38.0,30.0,30.01,NW,319,5.0,12.0,74,0.06,,,0.15,,2013-03-06 22:52:00,
2013-03-06 18:01:00,38.0,30.0,30.02,NW,320,5.0,12.0,73,0.04,,,0.15,,2013-03-06 23:01:00,
2013-03-06 18:11:00,38.0,30.0,30.02,NW,320,5.0,12.0,73,0.04,,,0.15,,2013-03-06 23:11:00,
2013-03-06 18:22:00,38.0,30.0,30.02,NW,310,7.0,13.0,74,0.04,,,0.17,,2013-03-06 23:22:00,
2013-03-06 18:32:00,38.0,30.0,30.03,WSW,256,4.0,13.0,74,0.04,,,0.18,,2013-03-06 23:32:00,
2013-03-06 18:42:00,38.0,30.0,30.03,WSW,256,4.0,13.0,74,0.04,,,0.18,,2013-03-06 23:42:00,
2013-03-06 18:52:00,37.0,29.0,30.03,WNW,295,6.0,9.0,74,0.04,,,0.19,,2013-03-06 23:52:00,
2013-03-06 19:02:00,37.0,29.0,30.03,NW,309,5.0,9.0,74,0.05,,,0.20,,2013-03-07 00:02:00,
2013-03-06 19:11:00,37.0,29.0,30.03,NW,309,5.0,9.0,74,0.05,,,0.20,,2013-03-07 00:11:00,
2013-03-06 19:22:00,38.0,30.0,30.04,NW,308,3.0,8.0,72,0.04,,,0.21,,2013-03-07 00:22:00,
2013-03-06 19:32:00,38.0,29.0,30.05,WNW,285,2.0,9.0,71,0.04,,,0.22,,2013-03-07 00:32:00,
2013-03-06 19:42:00,38.0,29.0,30.05,WNW,285,2.0,9.0,71,0.04,,,0.22,,2013-03-07 00:42:00,
2013-03-06 19:52:00,38.0,29.0,30.05,West,266,2.0,9.0,71,0.04,,,0.23,,2013-03-07 00:52:00,
2013-03-06 20:01:00,37.0,28.0,30.05,WNW,295,0.0,3.0,71,0.03,,,0.23,,2013-03-07 01:01:00,
2013-03-06 20:11:00,37.0,28.0,30.05,WNW,295,0.0,3.0,71,0.03,,,0.23,,2013-03-07 01:11:00,
2013-03-06 20:22:00,38.0,30.0,30.05,NW,314,2.0,8.0,72,0.03,,,0.24,,2013-03-07 01:22:00,
2013-03-06 20:32:00,38.0,29.0,30.05,WNW,295,2.0,7.0,71,0.02,,,0.24,,2013-03-07 01:32:00,
2013-03-06 20:42:00,38.0,29.0,30.05,WNW,295,2.0,7.0,71,0.02,,,0.24,,2013-03-07 01:42:00,
2013-03-06 20:52:00,38.0,30.0,30.06,West,281,0.0,3.0,72,0.01,,,0.24,,2013-03-07 01:52:00,
2013-03-06 21:01:00,38.0,30.0,30.06,WNW,290,0.0,2.0,73,0.02,,,0.25,,2013-03-07 02:01:00,
2013-03-06 21:11:00,38.0,30.0,30.06,WNW,290,0.0,2.0,73,0.02,,,0.25,,2013-03-07 02:11:00,
2013-03-06 21:21:00,37.0,30.0,30.08,WSW,256,1.0,2.0,75,0.01,,,0.25,,2013-03-07 02:21:00,
2013-03-06 21:32:00,37.0,30.0,30.08,SW,234,0.0,1.0,75,0.01,,,0.25,,2013-03-07 02:32:00,
2013-03-06 21:42:00,37.0,30.0,30.08,SW,234,0.0,1.0,75,0.01,,,0.25,,2013-03-07 02:42:00,
2013-03-06 21:52:00,37.0,30.0,30.08,SW,234,0.0,1.0,75,0.01,,,0.25,,2013-03-07 02:52:00,
2013-03-06 22:02:00,36.0,29.0,30.10,SSW,197,0.0,0.0,77,0.00,,,0.25,,2013-03-07 03:02:00,
2013-03-06 22:11:00,36.0,29.0,30.10,SSW,197,0.0,0.0,77,0.00,,,0.25,,2013-03-07 03:11:00,
2013-03-06 22:22:00,36.0,29.0,30.10,NNW,347,0.0,1.0,77,0.00,,,0.25,,2013-03-07 03:22:00,
2013-03-06 22:32:00,37.0,30.0,30.10,WNW,283,1.0,3.0,77,0.00,,,0.25,,2013-03-07 03:32:00,
2013-03-06 22:42:00,37.0,30.0,30.10,WNW,283,1.0,3.0,77,0.00,,,0.25,,2013-03-07 03:42:00,
2013-03-06 22:52:00,37.0,30.0,30.11,NW,308,1.0,3.0,75,0.01,,,0.26,,2013-03-07 03:52:00,
2013-03-06 23:02:00,37.0,29.0,30.11,NW,305,1.0,3.0,74,0.01,,,0.26,,2013-03-07 04:02:00,
2013-03-06 23:12:00,37.0,29.0,30.11,NW,305,1.0,3.0,74,0.01,,,0.26,,2013-03-07 04:12:00,
2013-03-06 23:22:00,37.0,29.0,30.11,WNW,288,2.0,6.0,72,0.01,,,0.26,,2013-03-07 04:22:00,
2013-03-06 23:32:00,38.0,29.0,30.11,NW,307,2.0,9.0,70,0.01,,,0.26,,2013-03-07 04:32:00,
2013-03-06 23:42:00,38.0,29.0,30.11,NW,307,2.0,9.0,70,0.01,,,0.26,,2013-03-07 04:42:00,
2013-03-06 23:52:00,37.0,28.0,30.11,West,278,2.0,5.0,70,0.01,,,0.27,,2013-03-07 04:52:00,